Terminal Aerodrome Forecast
Issued by NWS Goodland, KS

Home | Current Version | Previous Version | Text Only | Print | Product List | Glossary On
Versions: 1 2 3 4 5 6 7 8 9 10 11 12 13 14 15 16 17 18 19 20 21 22 23
000
FTUS43 KGLD 110500
TAFGLD
TAF
KGLD 110533Z 1106/1206 16013KT P6SM SKC
     FM110900 20011KT P6SM FEW200
     FM111600 21015G20KT P6SM SKC
     FM112100 18015G25KT P6SM SKC
     FM120200 19015KT P6SM SCT100=

USA.gov is the U.S. government's official web portal to all federal, state and local government web resources and services.